Urb Cerro los Pobres, Puerto Rico
Current Conditions -  °F | °C
As of 11:50 PM on Tuesday 25 Nov 2014 (Local Time) from TJBQ Reporting Station
Clear Clear  
Wind Chill: 73°   Ceiling: Unl
Heat Index: 73°   Visibility: 10mi
Dew Point: 70°   Wind: 3mph
Humidity: 88%   Direction: 120°ESE
Pressure: 30.03"   Gusts: NA
Location:  18.3427°N, 67.2504°W
Report Text: TJBQ 260350Z 12003KT 10SM SKC 23/21 A3003 RMK TWR CLOSED UNTIL 1100Z
Loading
Personal Weather Stations






























Interactive Weather Map New forecast layout! Learn more

10-Day Weather Forecast

Advertisements
Track Severe Weather on mobile